createdAt,value
2019-04-03T00:00:00.083Z,100068.53
2019-04-03T00:02:26.426Z,100060.91
2019-04-03T00:04:52.572Z,100057.63
2019-04-03T00:07:18.886Z,100056.88
2019-04-03T00:09:45.025Z,100057.95
2019-04-03T00:12:11.214Z,100055.69
2019-04-03T00:14:37.383Z,100052.26
2019-04-03T00:17:03.588Z,100051.23
2019-04-03T00:19:29.775Z,100055.39
2019-04-03T00:21:55.999Z,100056.73
2019-04-03T00:24:22.978Z,100063.08
2019-04-03T00:26:51.991Z,100057.43
2019-04-03T00:29:17.574Z,100054.92
2019-04-03T00:31:43.867Z,100056.08
2019-04-03T00:34:10.123Z,100047.89
2019-04-03T00:36:36.443Z,100051.88
2019-04-03T00:39:05.944Z,100053.28
2019-04-03T00:41:32.229Z,100048.59
2019-04-03T00:43:58.444Z,100046.19
2019-04-03T00:46:25.178Z,100039.36
2019-04-03T00:48:51.569Z,100043.72
2019-04-03T00:51:17.765Z,100036.11
2019-04-03T00:53:44.359Z,100030.87
2019-04-03T00:56:10.546Z,100031.98
2019-04-03T00:58:38.859Z,100022.05
2019-04-03T01:01:06.627Z,100027.45
2019-04-03T01:03:32.799Z,100027.20
2019-04-03T01:05:59.240Z,100020.47
2019-04-03T01:08:25.465Z,100021.46
2019-04-03T01:10:51.630Z,100016.84
2019-04-03T01:13:18.100Z,100017.45
2019-04-03T01:15:44.302Z,100017.45
2019-04-03T01:18:10.586Z,100011.62
2019-04-03T01:20:36.885Z,100011.08
2019-04-03T01:23:03.046Z,100008.29
2019-04-03T01:25:29.231Z,100014.98
2019-04-03T01:27:55.420Z,100008.70
2019-04-03T01:30:21.624Z,100005.67
2019-04-03T01:32:47.784Z,100000.89
2019-04-03T01:35:14.001Z,100007.66
2019-04-03T01:37:40.273Z,100001.36
2019-04-03T01:40:06.558Z,99999.74
2019-04-03T01:42:32.772Z,99997.41
2019-04-03T01:44:58.918Z,99999.24
2019-04-03T01:47:27.367Z,100002.09
2019-04-03T01:49:53.254Z,100000.88
2019-04-03T01:52:19.406Z,100003.27
2019-04-03T01:54:45.815Z,99996.64
2019-04-03T01:57:11.983Z,99993.66
2019-04-03T01:59:38.196Z,99997.34
2019-04-03T02:02:04.442Z,99993.21
2019-04-03T02:04:30.766Z,99991.61
2019-04-03T02:06:56.910Z,99994.09
2019-04-03T02:09:23.199Z,99996.33
2019-04-03T02:11:49.825Z,99990.62
2019-04-03T02:14:16.040Z,100000.33
2019-04-03T02:16:42.217Z,99994.08
2019-04-03T02:19:08.416Z,99997.11
2019-04-03T02:21:34.720Z,99983.38
2019-04-03T02:24:01.318Z,99988.73
2019-04-03T02:26:28.041Z,99979.69
2019-04-03T02:28:54.208Z,99984.11
2019-04-03T02:31:20.575Z,99981.92
2019-04-03T02:33:46.821Z,99985.02
2019-04-03T02:36:13.256Z,99980.91
2019-04-03T02:38:39.612Z,99982.69
2019-04-03T02:41:06.112Z,99978.51
2019-04-03T02:43:32.272Z,99976.85
2019-04-03T02:45:58.426Z,99975.43
2019-04-03T02:48:24.628Z,99976.91
2019-04-03T02:50:50.987Z,99971.67
2019-04-03T02:53:17.588Z,99973.36
2019-04-03T02:55:45.706Z,99974.52
2019-04-03T02:58:11.866Z,99969.89
2019-04-03T03:00:38.044Z,99974.24
2019-04-03T03:03:04.262Z,99965.00
2019-04-03T03:05:30.387Z,99970.66
2019-04-03T03:07:56.580Z,99970.60
2019-04-03T03:10:22.801Z,99973.81
2019-04-03T03:12:50.004Z,99980.48
2019-04-03T03:15:16.361Z,99974.58
2019-04-03T03:17:43.011Z,99978.50
2019-04-03T03:20:09.168Z,99971.05
2019-04-03T03:22:36.740Z,99973.03
2019-04-03T03:25:05.374Z,99971.05
2019-04-03T03:27:31.547Z,99974.72
2019-04-03T03:29:59.734Z,99973.78
2019-04-03T03:32:32.342Z,99979.61
2019-04-03T03:35:07.440Z,99988.67
2019-04-03T03:37:23.311Z,99983.41
2019-04-03T03:39:50.343Z,99982.19
2019-04-03T03:42:18.013Z,99982.39
2019-04-03T03:44:46.086Z,99977.31
2019-04-03T03:47:12.634Z,99982.23
2019-04-03T03:49:39.895Z,99980.88
2019-04-03T03:52:06.488Z,99978.80
2019-04-03T03:54:33.280Z,99974.50
2019-04-03T03:57:03.998Z,99973.27
2019-04-03T03:59:29.236Z,99975.31
2019-04-03T04:01:55.438Z,99975.40
2019-04-03T04:04:21.873Z,99976.05
2019-04-03T04:06:48.368Z,99976.75
2019-04-03T04:09:17.478Z,99979.98
2019-04-03T04:11:43.122Z,99991.00
2019-04-03T04:14:10.335Z,99992.69
2019-04-03T04:16:37.647Z,99988.89
2019-04-03T04:19:05.490Z,99999.51
2019-04-03T04:21:31.704Z,99997.61
2019-04-03T04:23:57.984Z,100004.64
2019-04-03T04:26:24.142Z,99998.70
2019-04-03T04:28:50.316Z,99996.05
2019-04-03T04:31:16.527Z,99995.47
2019-04-03T04:33:42.928Z,99997.14
2019-04-03T04:36:09.469Z,100002.80
2019-04-03T04:38:35.794Z,99999.26
2019-04-03T04:41:02.278Z,100002.77
2019-04-03T04:43:28.460Z,100005.89
2019-04-03T04:45:54.700Z,100002.80
2019-04-03T04:48:21.420Z,100004.70
2019-04-03T04:50:47.819Z,100010.84
2019-04-03T04:53:14.277Z,100010.29
2019-04-03T04:55:40.434Z,100001.30
2019-04-03T04:58:06.608Z,100004.69
2019-04-03T05:00:32.904Z,100006.11
2019-04-03T05:03:01.086Z,100007.94
2019-04-03T05:05:28.378Z,100001.44
2019-04-03T05:07:55.254Z,99999.66
2019-04-03T05:10:21.441Z,99995.17
2019-04-03T05:12:47.600Z,99991.88
2019-04-03T05:15:13.894Z,100004.46
2019-04-03T05:17:40.078Z,99994.92
2019-04-03T05:20:06.750Z,99993.86
2019-04-03T05:22:33.345Z,99989.25
2019-04-03T05:25:00.045Z,99984.88
2019-04-03T05:27:26.412Z,99990.19
2019-04-03T05:29:52.736Z,99986.17
2019-04-03T05:32:18.928Z,99996.30
2019-04-03T05:34:45.114Z,99986.61
2019-04-03T05:37:12.037Z,99989.56
2019-04-03T05:39:38.286Z,99992.98
2019-04-03T05:42:04.466Z,99994.64
2019-04-03T05:44:33.140Z,100000.49
2019-04-03T05:47:00.015Z,100000.76
2019-04-03T05:49:26.273Z,100005.22
2019-04-03T05:51:52.500Z,99996.75
2019-04-03T05:54:18.667Z,99993.26
2019-04-03T05:56:44.839Z,99989.92
2019-04-03T05:59:11.221Z,99983.72
2019-04-03T06:01:37.385Z,99990.98
2019-04-03T06:04:03.565Z,99985.69
2019-04-03T06:06:29.767Z,99979.22
2019-04-03T06:08:56.997Z,99989.23
2019-04-03T06:11:23.462Z,99990.44
2019-04-03T06:13:49.655Z,99986.06
2019-04-03T06:16:16.817Z,99983.86
2019-04-03T06:18:43.656Z,99987.00
2019-04-03T06:21:09.851Z,99978.79
2019-04-03T06:23:36.242Z,99977.69
2019-04-03T06:26:03.112Z,99989.05
2019-04-03T06:28:29.448Z,99985.23
2019-04-03T06:30:56.739Z,99985.16
2019-04-03T06:33:23.309Z,99981.55
2019-04-03T06:35:50.476Z,99982.72
2019-04-03T06:38:17.004Z,99986.30
2019-04-03T06:40:43.326Z,99987.20
2019-04-03T06:43:09.589Z,99988.70
2019-04-03T06:45:36.218Z,99986.72
2019-04-03T06:48:04.499Z,99979.23
2019-04-03T06:50:30.532Z,99985.19
2019-04-03T06:52:56.735Z,99984.05
2019-04-03T06:55:24.813Z,99982.78
2019-04-03T06:57:51.189Z,99986.22
2019-04-03T07:00:17.715Z,99993.64
2019-04-03T07:02:44.165Z,99983.98
2019-04-03T07:05:11.038Z,99988.95
2019-04-03T07:07:37.558Z,99987.63
2019-04-03T07:10:05.381Z,99983.46
2019-04-03T07:12:33.184Z,99980.72
2019-04-03T07:14:59.446Z,99980.84
2019-04-03T07:17:25.732Z,99976.88
2019-04-03T07:19:51.953Z,99969.51
2019-04-03T07:22:18.120Z,99968.09
2019-04-03T07:24:44.267Z,99974.91
2019-04-03T07:27:10.466Z,99975.61
2019-04-03T07:29:36.621Z,99979.59
2019-04-03T07:32:03.471Z,99979.43
2019-04-03T07:34:29.738Z,99978.63
2019-04-03T07:36:56.037Z,99973.13
2019-04-03T07:39:22.180Z,99972.94
2019-04-03T07:41:48.565Z,99961.59
2019-04-03T07:44:14.798Z,99961.14
2019-04-03T07:46:40.986Z,99958.35
2019-04-03T07:49:09.075Z,99963.63
2019-04-03T07:51:35.248Z,99949.70
2019-04-03T07:54:04.331Z,99961.92
2019-04-03T07:56:29.989Z,99950.96
2019-04-03T07:58:57.980Z,99957.03
2019-04-03T08:01:24.278Z,99965.94
2019-04-03T08:03:52.110Z,99960.83
2019-04-03T08:06:18.814Z,99957.82
2019-04-03T08:08:45.180Z,99950.65
2019-04-03T08:11:14.266Z,99949.11
2019-04-03T08:13:39.622Z,99943.30
2019-04-03T08:16:06.016Z,99936.52
2019-04-03T08:18:32.523Z,99930.91
2019-04-03T08:21:01.484Z,99935.67
2019-04-03T08:23:26.867Z,99934.72
2019-04-03T08:25:54.546Z,99931.48
2019-04-03T08:28:21.187Z,99930.76
2019-04-03T08:30:47.398Z,99934.84
2019-04-03T08:33:17.901Z,99916.39
2019-04-03T08:35:42.081Z,99920.15
2019-04-03T08:38:08.268Z,99915.59
2019-04-03T08:40:34.587Z,99925.02
2019-04-03T08:43:01.346Z,99929.45
2019-04-03T08:45:27.711Z,99914.66
2019-04-03T08:47:54.045Z,99911.81
2019-04-03T08:50:20.197Z,99910.53
2019-04-03T08:52:46.713Z,99909.06
2019-04-03T08:55:14.541Z,99906.80
2019-04-03T08:57:41.127Z,99908.50
2019-04-03T09:00:09.096Z,99899.75
2019-04-03T09:02:35.518Z,99889.98
2019-04-03T09:05:01.854Z,99888.22
2019-04-03T09:07:28.053Z,99884.73
2019-04-03T09:09:54.236Z,99884.78
2019-04-03T09:12:20.815Z,99888.25
2019-04-03T09:14:47.081Z,99882.02
2019-04-03T09:17:13.398Z,99880.59
2019-04-03T09:19:41.761Z,99883.77
2019-04-03T09:22:07.664Z,99872.83
2019-04-03T09:24:33.981Z,99879.78
2019-04-03T09:27:00.168Z,99874.09
2019-04-03T09:29:26.414Z,99856.67
2019-04-03T09:31:55.879Z,99860.98
2019-04-03T09:34:21.092Z,99862.41
2019-04-03T09:36:47.656Z,99847.39
2019-04-03T09:39:14.672Z,99849.55
2019-04-03T09:41:41.340Z,99846.44
2019-04-03T09:44:07.818Z,99843.15
2019-04-03T09:46:34.052Z,99833.25
2019-04-03T09:49:00.346Z,99817.85
2019-04-03T09:51:26.520Z,99826.14
2019-04-03T09:53:52.733Z,99821.32
2019-04-03T09:56:19.268Z,99820.62
2019-04-03T09:58:45.527Z,99825.68
2019-04-03T10:01:15.721Z,99820.33
2019-04-03T10:03:39.840Z,99811.49
2019-04-03T10:06:05.990Z,99810.86
2019-04-03T10:08:32.188Z,99811.88
2019-04-03T10:10:58.381Z,99815.95
2019-04-03T10:13:25.899Z,99798.04
2019-04-03T10:15:52.712Z,99791.97
2019-04-03T10:18:21.844Z,99799.95
2019-04-03T10:20:48.679Z,99787.87
2019-04-03T10:23:15.160Z,99783.59
2019-04-03T10:25:41.321Z,99789.80
2019-04-03T10:28:07.494Z,99790.09
2019-04-03T10:30:33.956Z,99783.33
2019-04-03T10:33:01.042Z,99764.11
2019-04-03T10:35:27.507Z,99772.72
2019-04-03T10:37:54.078Z,99764.17
2019-04-03T10:40:23.540Z,99760.59
2019-04-03T10:42:48.476Z,99755.37
2019-04-03T10:45:16.176Z,99754.72
2019-04-03T10:47:44.589Z,99754.28
2019-04-03T10:50:11.291Z,99741.05
2019-04-03T10:52:37.471Z,99738.38
2019-04-03T10:55:05.124Z,99741.88
2019-04-03T10:57:31.717Z,99736.61
2019-04-03T10:59:59.441Z,99737.68
2019-04-03T11:02:25.611Z,99731.97
2019-04-03T11:04:51.862Z,99726.75
2019-04-03T11:07:18.031Z,99719.22
2019-04-03T11:09:44.529Z,99700.31
2019-04-03T11:12:10.745Z,99705.81
2019-04-03T11:14:39.032Z,99704.06
2019-04-03T11:17:05.087Z,99704.66
2019-04-03T11:19:31.239Z,99696.31
2019-04-03T11:21:57.457Z,99690.26
2019-04-03T11:24:23.719Z,99695.91
2019-04-03T11:26:51.775Z,99688.13
2019-04-03T11:29:18.176Z,99679.83
2019-04-03T11:31:44.472Z,99683.70
2019-04-03T11:34:12.580Z,99663.45
2019-04-03T11:36:45.335Z,99665.70
2019-04-03T11:39:15.148Z,99670.50
2019-04-03T11:41:39.676Z,99664.34
2019-04-03T11:44:05.895Z,99662.98
2019-04-03T11:46:34.257Z,99657.45
2019-04-03T11:49:00.283Z,99661.88
2019-04-03T11:51:28.938Z,99651.75
2019-04-03T11:53:54.703Z,99638.11
2019-04-03T11:56:20.853Z,99637.67
2019-04-03T11:58:47.048Z,99638.47
2019-04-03T12:04:00.878Z,99625.98
2019-04-03T12:06:27.402Z,99620.58
2019-04-03T12:08:53.703Z,99615.44
2019-04-03T12:11:19.897Z,99622.09
2019-04-03T12:13:46.660Z,99609.05
2019-04-03T12:16:23.896Z,99604.40
2019-04-03T12:18:49.632Z,99599.67
2019-04-03T12:21:18.309Z,99588.25
2019-04-03T12:23:44.293Z,99589.80
2019-04-03T12:26:11.344Z,99590.13
2019-04-03T12:28:38.658Z,99578.61
2019-04-03T12:31:05.079Z,99579.27
2019-04-03T12:33:31.362Z,99575.04
2019-04-03T12:36:00.807Z,99570.04
2019-04-03T12:38:28.414Z,99571.17
2019-04-03T12:40:54.650Z,99570.08
2019-04-03T12:43:20.931Z,99568.33
2019-04-03T12:45:47.107Z,99566.84
2019-04-03T12:48:17.373Z,99560.72
2019-04-03T12:50:43.964Z,99554.98
2019-04-03T12:53:10.437Z,99553.46
2019-04-03T12:55:37.024Z,99543.98
2019-04-03T12:58:04.673Z,99541.66
2019-04-03T13:00:31.517Z,99540.35
2019-04-03T13:02:57.996Z,99534.77
2019-04-03T13:05:24.328Z,99537.66
2019-04-03T13:07:51.122Z,99527.86
2019-04-03T13:10:17.865Z,99528.14
2019-04-03T13:12:44.075Z,99531.44
2019-04-03T13:15:10.971Z,99531.92
2019-04-03T13:17:37.356Z,99525.98
2019-04-03T13:20:06.121Z,99521.37
2019-04-03T13:22:32.800Z,99525.08
2019-04-03T13:24:59.006Z,99521.66
2019-04-03T13:27:25.539Z,99523.95
2019-04-03T13:29:52.259Z,99519.72
2019-04-03T13:32:18.733Z,99517.27
2019-04-03T13:34:44.942Z,99518.39
2019-04-03T13:37:11.150Z,99512.32
2019-04-03T13:39:37.398Z,99512.82
2019-04-03T13:42:04.050Z,99508.17
2019-04-03T13:44:30.226Z,99506.59
2019-04-03T13:46:56.416Z,99501.76
2019-04-03T13:49:22.685Z,99505.34
2019-04-03T13:51:48.836Z,99499.78
2019-04-03T13:54:15.287Z,99494.03
2019-04-03T13:56:43.037Z,99495.24
2019-04-03T13:59:09.813Z,99493.17
2019-04-03T14:01:39.479Z,99493.79
2019-04-03T14:04:04.855Z,99485.42
2019-04-03T14:06:31.283Z,99482.94
2019-04-03T14:08:58.545Z,99486.06
2019-04-03T14:11:24.728Z,99481.95
2019-04-03T14:13:50.902Z,99481.98
2019-04-03T14:16:21.558Z,99477.64
2019-04-03T14:18:45.867Z,99468.11
2019-04-03T14:21:12.336Z,99474.46
2019-04-03T14:23:40.998Z,99467.58
2019-04-03T14:26:08.431Z,99465.81
2019-04-03T14:28:35.585Z,99464.52
2019-04-03T14:31:04.964Z,99466.31
2019-04-03T14:33:41.805Z,99462.22
2019-04-03T14:35:58.969Z,99462.66
2019-04-03T14:38:27.719Z,99461.84
2019-04-03T14:40:53.839Z,99466.75
2019-04-03T14:43:22.053Z,99460.53
2019-04-03T14:45:48.548Z,99459.66
2019-04-03T14:48:14.998Z,99456.61
2019-04-03T14:50:41.300Z,99468.41
2019-04-03T14:53:07.530Z,99456.23
2019-04-03T14:55:45.907Z,99464.89
2019-04-03T14:58:01.936Z,99454.41
2019-04-03T15:00:31.266Z,99456.17
2019-04-03T15:02:57.568Z,99455.78
2019-04-03T15:05:24.321Z,99454.38
2019-04-03T15:07:50.917Z,99446.20
2019-04-03T15:10:18.598Z,99449.09
2019-04-03T15:12:44.906Z,99455.27
2019-04-03T15:15:11.604Z,99451.41
2019-04-03T15:17:38.258Z,99453.30
2019-04-03T15:20:07.263Z,99450.35
2019-04-03T15:22:33.662Z,99445.91
2019-04-03T15:24:59.872Z,99447.13
2019-04-03T15:27:28.158Z,99445.97
2019-04-03T15:29:54.890Z,99441.75
2019-04-03T15:32:21.079Z,99440.73
2019-04-03T15:34:50.013Z,99438.28
2019-04-03T15:37:15.840Z,99438.24
2019-04-03T15:39:42.553Z,99441.27
2019-04-03T15:42:08.825Z,99439.05
2019-04-03T15:44:35.187Z,99439.91
2019-04-03T15:47:02.250Z,99432.37
2019-04-03T15:49:28.798Z,99438.26
2019-04-03T15:51:54.990Z,99428.89
2019-04-03T15:54:21.348Z,99431.31
2019-04-03T15:56:47.553Z,99429.51
2019-04-03T15:59:14.152Z,99437.52
2019-04-03T16:01:40.533Z,99437.98
2019-04-03T16:04:07.036Z,99440.41
2019-04-03T16:06:35.327Z,99441.00
2019-04-03T16:09:01.448Z,99437.82
2019-04-03T16:11:29.840Z,99438.70
2019-04-03T16:13:55.814Z,99437.93
2019-04-03T16:16:22.028Z,99446.83
2019-04-03T16:18:48.197Z,99445.03
2019-04-03T16:21:17.630Z,99444.05
2019-04-03T16:23:44.094Z,99447.84
2019-04-03T16:26:10.405Z,99454.51
2019-04-03T16:28:37.109Z,99451.38
2019-04-03T16:31:03.722Z,99448.55
2019-04-03T16:33:30.130Z,99455.44
2019-04-03T16:35:56.344Z,99453.81
2019-04-03T16:38:22.856Z,99454.75
2019-04-03T16:40:49.228Z,99451.25
2019-04-03T16:43:15.590Z,99455.89
2019-04-03T16:45:41.783Z,99454.06
2019-04-03T16:48:07.964Z,99453.98
2019-04-03T16:50:34.156Z,99456.50
2019-04-03T16:53:00.689Z,99458.48
2019-04-03T16:55:26.941Z,99464.38
2019-04-03T16:57:54.611Z,99455.20
2019-04-03T17:00:21.771Z,99468.36
2019-04-03T17:02:48.541Z,99465.82
2019-04-03T17:05:15.204Z,99474.32
2019-04-03T17:07:41.881Z,99471.21
2019-04-03T17:10:09.945Z,99463.50
2019-04-03T17:12:36.955Z,99466.36
2019-04-03T17:15:05.617Z,99472.14
2019-04-03T17:17:31.875Z,99473.70
2019-04-03T17:19:58.594Z,99472.54
2019-04-03T17:22:25.073Z,99482.50
2019-04-03T17:24:54.370Z,99482.60
2019-04-03T17:27:19.821Z,99489.67
2019-04-03T17:29:47.401Z,99492.62
2019-04-03T17:32:15.434Z,99492.65
2019-04-03T17:34:43.391Z,99498.84
2019-04-03T17:37:10.024Z,99504.80
2019-04-03T17:39:36.304Z,99509.62
2019-04-03T17:42:02.628Z,99509.73
2019-04-03T17:44:28.783Z,99518.13
2019-04-03T17:46:59.830Z,99519.61
2019-04-03T17:49:28.298Z,99523.19
2019-04-03T17:51:54.108Z,99520.17
2019-04-03T17:54:20.300Z,99520.84
2019-04-03T17:56:46.510Z,99519.80
2019-04-03T17:59:12.669Z,99526.83
2019-04-03T18:01:38.925Z,99532.81
2019-04-03T18:04:05.169Z,99536.47
2019-04-03T18:06:31.425Z,99528.41
2019-04-03T18:08:57.612Z,99535.73
2019-04-03T18:11:23.799Z,99533.95
2019-04-03T18:13:51.043Z,99535.63
2019-04-03T18:16:17.226Z,99536.67
2019-04-03T18:18:43.431Z,99539.62
2019-04-03T18:21:09.635Z,99545.22
2019-04-03T18:23:35.929Z,99544.16
2019-04-03T18:26:02.548Z,99551.33
2019-04-03T18:28:28.848Z,99551.50
2019-04-03T18:30:55.121Z,99545.38
2019-04-03T18:33:21.314Z,99546.60
2019-04-03T18:35:47.498Z,99552.86
2019-04-03T18:38:13.679Z,99558.53
2019-04-03T18:40:39.892Z,99559.89
2019-04-03T18:43:06.145Z,99571.62
2019-04-03T18:45:32.343Z,99569.18
2019-04-03T18:47:58.662Z,99572.59
2019-04-03T18:50:24.921Z,99579.38
2019-04-03T18:52:51.312Z,99586.98
2019-04-03T18:55:17.532Z,99588.53
2019-04-03T18:57:43.801Z,99594.05
2019-04-03T19:00:11.106Z,99590.30
2019-04-03T19:02:37.344Z,99585.58
2019-04-03T19:05:09.013Z,99599.58
2019-04-03T19:07:35.131Z,99600.66
2019-04-03T19:10:07.336Z,99586.45
2019-04-03T19:12:35.418Z,99591.17
2019-04-03T19:14:57.628Z,99589.45
2019-04-03T19:17:24.838Z,99585.73
2019-04-03T19:19:54.434Z,99596.50
2019-04-03T19:22:19.773Z,99594.98
2019-04-03T19:24:46.076Z,99588.77
2019-04-03T19:27:12.246Z,99589.77
2019-04-03T19:29:38.446Z,99591.28
2019-04-03T19:32:04.654Z,99595.61
2019-04-03T19:34:30.802Z,99589.70
2019-04-03T19:36:56.959Z,99596.01
2019-04-03T19:39:23.160Z,99590.05
2019-04-03T19:41:49.348Z,99597.87
2019-04-03T19:44:16.139Z,99602.38
2019-04-03T19:46:43.745Z,99603.50
2019-04-03T19:49:09.901Z,99610.97
2019-04-03T19:51:37.558Z,99609.12
2019-04-03T19:54:04.231Z,99613.39
2019-04-03T19:56:30.393Z,99612.48
2019-04-03T19:58:59.355Z,99616.78
2019-04-03T20:01:24.701Z,99609.98
2019-04-03T20:03:50.868Z,99609.35
2019-04-03T20:06:17.048Z,99616.70
2019-04-03T20:08:43.375Z,99607.52
2019-04-03T20:11:09.662Z,99617.77
2019-04-03T20:13:35.848Z,99612.28
2019-04-03T20:16:02.126Z,99611.17
2019-04-03T20:18:28.376Z,99623.17
2019-04-03T20:20:54.569Z,99616.70
2019-04-03T20:23:20.774Z,99620.60
2019-04-03T20:25:46.944Z,99618.33
2019-04-03T20:28:13.247Z,99622.08
2019-04-03T20:30:39.665Z,99619.13
2019-04-03T20:33:05.949Z,99620.49
2019-04-03T20:35:32.106Z,99618.95
2019-04-03T20:37:58.342Z,99623.84
2019-04-03T20:40:24.537Z,99632.18
2019-04-03T20:42:50.835Z,99628.03
2019-04-03T20:45:18.855Z,99626.95
2019-04-03T20:47:45.094Z,99627.27
2019-04-03T20:50:11.452Z,99630.22
2019-04-03T20:52:37.657Z,99634.91
2019-04-03T20:55:07.077Z,99631.92
2019-04-03T20:57:33.938Z,99634.46
2019-04-03T21:00:03.238Z,99631.42
2019-04-03T21:02:28.440Z,99639.94
2019-04-03T21:04:54.644Z,99642.86
2019-04-03T21:07:23.735Z,99643.89
2019-04-03T21:09:48.905Z,99653.77
2019-04-03T21:12:15.083Z,99651.48
2019-04-03T21:14:41.951Z,99659.27
2019-04-03T21:17:08.311Z,99655.17
2019-04-03T21:19:34.508Z,99650.67
2019-04-03T21:22:00.723Z,99656.92
2019-04-03T21:24:26.864Z,99663.59
2019-04-03T21:26:53.034Z,99662.45
2019-04-03T21:29:19.346Z,99656.39
2019-04-03T21:31:45.515Z,99654.02
2019-04-03T21:34:11.790Z,99657.16
2019-04-03T21:36:38.862Z,99656.13
2019-04-03T21:39:06.177Z,99656.68
2019-04-03T21:41:32.349Z,99657.43
2019-04-03T21:43:59.964Z,99653.13
2019-04-03T21:46:26.728Z,99651.74
2019-04-03T21:48:52.883Z,99646.86
2019-04-03T21:51:20.809Z,99660.59
2019-04-03T21:53:47.321Z,99653.57
2019-04-03T21:56:13.489Z,99653.18
2019-04-03T21:58:40.338Z,99654.00
2019-04-03T22:01:14.824Z,99657.69
2019-04-03T22:03:41.636Z,99655.35
2019-04-03T22:06:07.847Z,99652.27
2019-04-03T22:08:34.035Z,99654.16
2019-04-03T22:11:03.750Z,99655.57
2019-04-03T22:13:28.481Z,99648.06
2019-04-03T22:15:54.762Z,99649.95
2019-04-03T22:18:23.507Z,99653.23
2019-04-03T22:20:49.309Z,99655.44
2019-04-03T22:23:15.597Z,99653.55
2019-04-03T22:25:41.898Z,99657.20
2019-04-03T22:28:08.110Z,99650.39
2019-04-03T22:30:34.271Z,99650.77
2019-04-03T22:33:00.475Z,99648.09
2019-04-03T22:35:27.943Z,99645.67
2019-04-03T22:37:54.576Z,99647.22
2019-04-03T22:40:20.736Z,99650.25
2019-04-03T22:42:47.048Z,99644.11
2019-04-03T22:45:13.355Z,99646.38
2019-04-03T22:47:39.523Z,99642.70
2019-04-03T22:50:05.940Z,99646.16
2019-04-03T22:52:32.190Z,99645.83
2019-04-03T22:54:58.348Z,99645.59
2019-04-03T22:57:24.574Z,99648.86
2019-04-03T22:59:50.849Z,99645.09
2019-04-03T23:02:17.026Z,99642.29
2019-04-03T23:04:46.206Z,99647.86
2019-04-03T23:07:11.477Z,99639.38
2019-04-03T23:09:37.762Z,99644.97
2019-04-03T23:12:04.090Z,99643.36
2019-04-03T23:14:30.394Z,99636.17
2019-04-03T23:16:56.592Z,99633.59
2019-04-03T23:19:22.950Z,99635.19
2019-04-03T23:21:49.258Z,99631.62
2019-04-03T23:24:15.447Z,99627.98
2019-04-03T23:26:41.780Z,99632.28
2019-04-03T23:29:07.950Z,99634.35
2019-04-03T23:31:34.218Z,99628.25
2019-04-03T23:34:00.540Z,99630.80
2019-04-03T23:36:26.808Z,99627.83
2019-04-03T23:38:53.123Z,99625.73
2019-04-03T23:41:19.479Z,99623.28
2019-04-03T23:43:45.738Z,99620.81
2019-04-03T23:46:12.828Z,99618.28
2019-04-03T23:48:40.161Z,99614.80
2019-04-03T23:51:06.325Z,99615.27
2019-04-03T23:53:32.749Z,99610.14
2019-04-03T23:55:59.177Z,99607.66
2019-04-03T23:58:25.368Z,99607.94
